sensor_id;sensor_type;location;lat;lon;timestamp;pressure;altitude;pressure_sealevel;temperature;humidity
50356;BME280;36264;51.296;-0.602;2023-02-01T00:00:32;102304.22;;;8.30;68.55
50356;BME280;36264;51.296;-0.602;2023-02-01T00:02:59;102308.53;;;8.23;68.99
50356;BME280;36264;51.296;-0.602;2023-02-01T00:05:25;102305.03;;;8.24;69.25
50356;BME280;36264;51.296;-0.602;2023-02-01T00:07:50;102304.19;;;8.22;69.52
50356;BME280;36264;51.296;-0.602;2023-02-01T00:10:15;102322.31;;;8.24;69.56
50356;BME280;36264;51.296;-0.602;2023-02-01T00:12:41;102324.88;;;8.19;70.35
50356;BME280;36264;51.296;-0.602;2023-02-01T00:15:07;102322.31;;;8.21;70.02
50356;BME280;36264;51.296;-0.602;2023-02-01T00:17:32;102324.03;;;8.19;69.44
50356;BME280;36264;51.296;-0.602;2023-02-01T00:19:57;102317.94;;;8.10;69.67
50356;BME280;36264;51.296;-0.602;2023-02-01T00:22:23;102317.94;;;8.07;69.45
50356;BME280;36264;51.296;-0.602;2023-02-01T00:24:48;102319.63;;;8.05;69.78
50356;BME280;36264;51.296;-0.602;2023-02-01T00:27:13;102309.28;;;8.05;71.28
50356;BME280;36264;51.296;-0.602;2023-02-01T00:29:43;102312.78;;;8.16;70.77
50356;BME280;36264;51.296;-0.602;2023-02-01T00:32:09;102311.06;;;8.14;70.09
50356;BME280;36264;51.296;-0.602;2023-02-01T00:34:35;102318.81;;;8.11;70.36
50356;BME280;36264;51.296;-0.602;2023-02-01T00:37:00;102310.19;;;8.18;72.04
50356;BME280;36264;51.296;-0.602;2023-02-01T00:39:25;102301.66;;;8.38;73.01
50356;BME280;36264;51.296;-0.602;2023-02-01T00:41:51;102302.56;;;8.47;72.79
50356;BME280;36264;51.296;-0.602;2023-02-01T00:44:16;102294.81;;;8.50;73.18
50356;BME280;36264;51.296;-0.602;2023-02-01T00:46:41;102287.06;;;8.55;72.02
50356;BME280;36264;51.296;-0.602;2023-02-01T00:49:07;102280.16;;;8.54;72.49
50356;BME280;36264;51.296;-0.602;2023-02-01T00:51:34;102274.97;;;8.56;72.23
50356;BME280;36264;51.296;-0.602;2023-02-01T00:54:00;102269.78;;;8.49;72.92
50356;BME280;36264;51.296;-0.602;2023-02-01T00:56:26;102272.38;;;8.54;72.41
50356;BME280;36264;51.296;-0.602;2023-02-01T00:58:52;102279.28;;;8.47;72.18
50356;BME280;36264;51.296;-0.602;2023-02-01T01:01:21;102266.34;;;8.54;72.66
50356;BME280;36264;51.296;-0.602;2023-02-01T01:03:53;102264.59;;;8.56;73.75
50356;BME280;36264;51.296;-0.602;2023-02-01T01:06:24;102271.53;;;8.63;73.38
50356;BME280;36264;51.296;-0.602;2023-02-01T01:08:54;102278.44;;;8.68;77.84
50356;BME280;36264;51.296;-0.602;2023-02-01T01:11:23;102271.53;;;8.84;75.97
50356;BME280;36264;51.296;-0.602;2023-02-01T01:13:50;102279.31;;;8.87;75.89
50356;BME280;36264;51.296;-0.602;2023-02-01T01:16:17;102281.03;;;9.09;77.59
50356;BME280;36264;51.296;-0.602;2023-02-01T01:18:42;102268.97;;;9.18;75.93
50356;BME280;36264;51.296;-0.602;2023-02-01T01:21:09;102265.47;;;9.29;76.41
50356;BME280;36264;51.296;-0.602;2023-02-01T01:23:35;102261.13;;;9.41;76.28
50356;BME280;36264;51.296;-0.602;2023-02-01T01:26:08;102251.59;;;9.54;76.79
50356;BME280;36264;51.296;-0.602;2023-02-01T01:28:34;102252.47;;;9.56;76.53
50356;BME280;36264;51.296;-0.602;2023-02-01T01:31:00;102250.72;;;9.58;77.88
50356;BME280;36264;51.296;-0.602;2023-02-01T01:33:25;102249.81;;;9.67;77.64
50356;BME280;36264;51.296;-0.602;2023-02-01T01:35:50;102261.94;;;9.70;79.68
50356;BME280;36264;51.296;-0.602;2023-02-01T01:38:16;102250.69;;;9.75;77.92
50356;BME280;36264;51.296;-0.602;2023-02-01T01:40:45;102253.19;;;9.95;77.77
50356;BME280;36264;51.296;-0.602;2023-02-01T01:43:15;102249.72;;;10.00;77.83
50356;BME280;36264;51.296;-0.602;2023-02-01T01:45:41;102254.03;;;9.97;77.86
50356;BME280;36264;51.296;-0.602;2023-02-01T01:50:44;102258.34;;;10.02;78.65
50356;BME280;36264;51.296;-0.602;2023-02-01T01:53:16;102241.88;;;10.15;77.76
50356;BME280;36264;51.296;-0.602;2023-02-01T01:55:44;102232.38;;;10.08;78.51
50356;BME280;36264;51.296;-0.602;2023-02-01T01:58:16;102240.16;;;10.08;78.50
50356;BME280;36264;51.296;-0.602;2023-02-01T02:00:44;102247.97;;;10.00;79.49
50356;BME280;36264;51.296;-0.602;2023-02-01T02:05:39;102241.91;;;10.09;78.06
50356;BME280;36264;51.296;-0.602;2023-02-01T02:08:05;102238.41;;;10.10;78.42
50356;BME280;36264;51.296;-0.602;2023-02-01T02:10:31;102242.75;;;10.11;78.45
50356;BME280;36264;51.296;-0.602;2023-02-01T02:13:16;102240.91;;;10.33;77.71
50356;BME280;36264;51.296;-0.602;2023-02-01T02:15:47;102243.53;;;10.27;78.04
50356;BME280;36264;51.296;-0.602;2023-02-01T02:18:26;102242.59;;;10.42;77.61
50356;BME280;36264;51.296;-0.602;2023-02-01T02:21:09;102243.50;;;10.39;77.99
50356;BME280;36264;51.296;-0.602;2023-02-01T02:35:33;102233.06;;;10.47;77.22
50356;BME280;36264;51.296;-0.602;2023-02-01T02:46:40;102220.09;;;10.42;76.76
50356;BME280;36264;51.296;-0.602;2023-02-01T02:49:35;102214.03;;;10.40;76.85
50356;BME280;36264;51.296;-0.602;2023-02-01T02:52:16;102214.09;;;10.29;77.39
50356;BME280;36264;51.296;-0.602;2023-02-01T02:55:05;102214.03;;;10.40;76.54
50356;BME280;36264;51.296;-0.602;2023-02-01T02:57:38;102214.91;;;10.41;76.36
50356;BME280;36264;51.296;-0.602;2023-02-01T03:00:28;102228.72;;;10.43;76.28
50356;BME280;36264;51.296;-0.602;2023-02-01T03:03:12;102231.34;;;10.38;76.54
50356;BME280;36264;51.296;-0.602;2023-02-01T03:05:56;102225.28;;;10.45;76.78
50356;BME280;36264;51.296;-0.602;2023-02-01T03:08:31;102222.53;;;10.61;76.50
50356;BME280;36264;51.296;-0.602;2023-02-01T03:16:36;102221.63;;;10.69;76.56
50356;BME280;36264;51.296;-0.602;2023-02-01T03:21:49;102217.34;;;10.61;76.50
50356;BME280;36264;51.296;-0.602;2023-02-01T03:24:19;102216.38;;;10.76;76.11
50356;BME280;36264;51.296;-0.602;2023-02-01T03:26:54;102212.00;;;10.78;76.28
50356;BME280;36264;51.296;-0.602;2023-02-01T03:29:25;102202.44;;;10.81;75.97
50356;BME280;36264;51.296;-0.602;2023-02-01T03:31:52;102204.25;;;10.75;75.93
50356;BME280;36264;51.296;-0.602;2023-02-01T03:34:18;102206.88;;;10.70;75.69
50356;BME280;36264;51.296;-0.602;2023-02-01T03:36:48;102205.00;;;10.87;75.26
50356;BME280;36264;51.296;-0.602;2023-02-01T03:39:22;102208.47;;;10.90;75.22
50356;BME280;36264;51.296;-0.602;2023-02-01T03:41:55;102211.97;;;10.85;75.39
50356;BME280;36264;51.296;-0.602;2023-02-01T03:44:31;102204.19;;;10.81;75.37
50356;BME280;36264;51.296;-0.602;2023-02-01T03:47:11;102206.78;;;10.81;75.33
50356;BME280;36264;51.296;-0.602;2023-02-01T03:49:42;102213.72;;;10.82;75.31
50356;BME280;36264;51.296;-0.602;2023-02-01T03:52:16;102204.16;;;10.84;75.14
50356;BME280;36264;51.296;-0.602;2023-02-01T03:54:44;102205.97;;;10.77;75.40
50356;BME280;36264;51.296;-0.602;2023-02-01T03:57:13;102207.66;;;10.78;75.56
50356;BME280;36264;51.296;-0.602;2023-02-01T03:59:41;102212.97;;;10.71;76.02
50356;BME280;36264;51.296;-0.602;2023-02-01T04:02:07;102209.41;;;10.78;75.62
50356;BME280;36264;51.296;-0.602;2023-02-01T04:04:34;102209.38;;;10.81;75.76
50356;BME280;36264;51.296;-0.602;2023-02-01T04:06:59;102208.59;;;10.73;75.62
50356;BME280;36264;51.296;-0.602;2023-02-01T04:09:24;102219.75;;;10.84;75.58
50356;BME280;36264;51.296;-0.602;2023-02-01T04:11:50;102209.38;;;10.84;75.27
50356;BME280;36264;51.296;-0.602;2023-02-01T04:14:15;102193.72;;;10.92;74.84
50356;BME280;36264;51.296;-0.602;2023-02-01T04:16:41;102183.38;;;10.84;75.24
50356;BME280;36264;51.296;-0.602;2023-02-01T04:19:06;102186.00;;;10.82;75.00
50356;BME280;36264;51.296;-0.602;2023-02-01T04:21:31;102183.31;;;10.90;75.01
50356;BME280;36264;51.296;-0.602;2023-02-01T04:23:57;102178.13;;;10.92;74.94
50356;BME280;36264;51.296;-0.602;2023-02-01T04:26:22;102182.47;;;10.90;74.85
50356;BME280;36264;51.296;-0.602;2023-02-01T04:28:47;102178.91;;;10.97;74.76
50356;BME280;36264;51.296;-0.602;2023-02-01T04:31:17;102193.63;;;11.02;74.49
50356;BME280;36264;51.296;-0.602;2023-02-01T04:33:43;102189.25;;;11.04;74.33
50356;BME280;36264;51.296;-0.602;2023-02-01T04:36:09;102189.28;;;11.01;74.22
50356;BME280;36264;51.296;-0.602;2023-02-01T04:38:34;102195.38;;;10.97;74.14
50356;BME280;36264;51.296;-0.602;2023-02-01T04:41:00;102198.00;;;10.94;74.42
50356;BME280;36264;51.296;-0.602;2023-02-01T04:43:25;102191.88;;;11.01;74.25
50356;BME280;36264;51.296;-0.602;2023-02-01T04:45:51;102197.94;;;11.00;74.15
50356;BME280;36264;51.296;-0.602;2023-02-01T04:48:18;102191.91;;;10.98;74.18
50356;BME280;36264;51.296;-0.602;2023-02-01T04:50:46;102193.63;;;10.99;74.11
50356;BME280;36264;51.296;-0.602;2023-02-01T04:53:14;102201.44;;;10.99;74.13
50356;BME280;36264;51.296;-0.602;2023-02-01T04:55:40;102208.41;;;10.91;73.65
50356;BME280;36264;51.296;-0.602;2023-02-01T04:58:05;102215.41;;;10.86;74.14
50356;BME280;36264;51.296;-0.602;2023-02-01T05:00:30;102216.28;;;10.86;74.11
50356;BME280;36264;51.296;-0.602;2023-02-01T05:02:56;102220.53;;;10.94;74.02
50356;BME280;36264;51.296;-0.602;2023-02-01T05:05:21;102219.69;;;10.95;73.92
50356;BME280;36264;51.296;-0.602;2023-02-01T05:07:47;102223.22;;;10.84;74.55
50356;BME280;36264;51.296;-0.602;2023-02-01T05:10:12;102226.56;;;10.97;74.27
50356;BME280;36264;51.296;-0.602;2023-02-01T05:12:37;102225.66;;;11.04;73.77
50356;BME280;36264;51.296;-0.602;2023-02-01T05:15:21;102230.91;;;10.97;73.84
50356;BME280;36264;51.296;-0.602;2023-02-01T05:17:47;102230.94;;;10.95;74.15
50356;BME280;36264;51.296;-0.602;2023-02-01T05:20:12;102236.06;;;11.04;74.25
50356;BME280;36264;51.296;-0.602;2023-02-01T05:22:37;102236.81;;;11.14;73.96
50356;BME280;36264;51.296;-0.602;2023-02-01T05:25:03;102235.94;;;11.18;74.22
50356;BME280;36264;51.296;-0.602;2023-02-01T05:27:30;102245.34;;;11.30;74.03
50356;BME280;36264;51.296;-0.602;2023-02-01T05:29:55;102234.94;;;11.29;74.05
50356;BME280;36264;51.296;-0.602;2023-02-01T05:32:21;102229.72;;;11.32;74.09
50356;BME280;36264;51.296;-0.602;2023-02-01T05:34:46;102233.09;;;11.38;74.05
50356;BME280;36264;51.296;-0.602;2023-02-01T05:37:11;102230.50;;;11.37;74.02
50356;BME280;36264;51.296;-0.602;2023-02-01T05:39:37;102234.81;;;11.42;74.16
50356;BME280;36264;51.296;-0.602;2023-02-01T05:42:03;102233.94;;;11.44;74.13
50356;BME280;36264;51.296;-0.602;2023-02-01T05:44:29;102222.66;;;11.41;74.19
50356;BME280;36264;51.296;-0.602;2023-02-01T05:46:54;102220.78;;;11.56;74.23
50356;BME280;36264;51.296;-0.602;2023-02-01T05:49:19;102222.50;;;11.57;73.90
50356;BME280;36264;51.296;-0.602;2023-02-01T05:51:45;102222.47;;;11.60;73.92
50356;BME280;36264;51.296;-0.602;2023-02-01T05:54:10;102226.88;;;11.53;73.94
50356;BME280;36264;51.296;-0.602;2023-02-01T05:56:36;102224.22;;;11.59;73.94
50356;BME280;36264;51.296;-0.602;2023-02-01T05:59:01;102216.38;;;11.63;74.05
50356;BME280;36264;51.296;-0.602;2023-02-01T06:01:27;102235.44;;;11.65;74.17
50356;BME280;36264;51.296;-0.602;2023-02-01T06:03:52;102215.53;;;11.57;74.37
50356;BME280;36264;51.296;-0.602;2023-02-01T06:06:17;102216.47;;;11.55;74.37
50356;BME280;36264;51.296;-0.602;2023-02-01T06:08:44;102226.78;;;11.64;74.73
50356;BME280;36264;51.296;-0.602;2023-02-01T06:11:09;102229.31;;;11.67;74.58
50356;BME280;36264;51.296;-0.602;2023-02-01T06:13:34;102226.91;;;11.50;74.73
50356;BME280;36264;51.296;-0.602;2023-02-01T06:16:01;102228.44;;;11.68;74.80
50356;BME280;36264;51.296;-0.602;2023-02-01T06:18:27;102231.03;;;11.70;74.62
50356;BME280;36264;51.296;-0.602;2023-02-01T06:20:54;102240.50;;;11.75;74.77
50356;BME280;36264;51.296;-0.602;2023-02-01T06:23:20;102230.16;;;11.71;74.74
50356;BME280;36264;51.296;-0.602;2023-02-01T06:25:49;102225.75;;;11.76;74.86
50356;BME280;36264;51.296;-0.602;2023-02-01T06:28:14;102223.13;;;11.77;74.60
50356;BME280;36264;51.296;-0.602;2023-02-01T06:30:40;102217.88;;;11.81;74.81
50356;BME280;36264;51.296;-0.602;2023-02-01T06:33:08;102211.78;;;11.83;74.76
50356;BME280;36264;51.296;-0.602;2023-02-01T06:35:33;102213.53;;;11.81;74.45
50356;BME280;36264;51.296;-0.602;2023-02-01T06:37:58;102209.25;;;11.78;74.81
50356;BME280;36264;51.296;-0.602;2023-02-01T06:40:24;102208.38;;;11.76;75.11
50356;BME280;36264;51.296;-0.602;2023-02-01T06:42:50;102214.44;;;11.78;75.02
50356;BME280;36264;51.296;-0.602;2023-02-01T06:45:16;102203.03;;;11.89;75.12
50356;BME280;36264;51.296;-0.602;2023-02-01T06:47:41;102203.06;;;11.86;75.57
50356;BME280;36264;51.296;-0.602;2023-02-01T06:50:07;102213.47;;;11.86;75.14
50356;BME280;36264;51.296;-0.602;2023-02-01T06:52:33;102219.63;;;11.80;75.44
50356;BME280;36264;51.296;-0.602;2023-02-01T06:54:58;102215.31;;;11.77;75.51
50356;BME280;36264;51.296;-0.602;2023-02-01T06:57:24;102213.56;;;11.78;75.49
50356;BME280;36264;51.296;-0.602;2023-02-01T06:59:50;102221.44;;;11.72;75.85
50356;BME280;36264;51.296;-0.602;2023-02-01T07:02:15;102220.56;;;11.73;75.64
50356;BME280;36264;51.296;-0.602;2023-02-01T07:04:41;102224.97;;;11.69;75.78
50356;BME280;36264;51.296;-0.602;2023-02-01T07:07:06;102220.69;;;11.64;75.64
50356;BME280;36264;51.296;-0.602;2023-02-01T07:09:31;102228.47;;;11.67;75.89
50356;BME280;36264;51.296;-0.602;2023-02-01T07:11:57;102236.31;;;11.62;75.94
50356;BME280;36264;51.296;-0.602;2023-02-01T07:14:22;102231.09;;;11.64;75.92
50356;BME280;36264;51.296;-0.602;2023-02-01T07:16:47;102232.97;;;11.52;76.22
50356;BME280;36264;51.296;-0.602;2023-02-01T07:19:13;102236.41;;;11.53;76.41
50356;BME280;36264;51.296;-0.602;2023-02-01T07:21:38;102248.50;;;11.58;76.11
50356;BME280;36264;51.296;-0.602;2023-02-01T07:24:04;102249.25;;;11.68;75.95
50356;BME280;36264;51.296;-0.602;2023-02-01T07:26:29;102252.81;;;11.64;75.59
50356;BME280;36264;51.296;-0.602;2023-02-01T07:28:55;102261.41;;;11.68;75.87
50356;BME280;36264;51.296;-0.602;2023-02-01T07:31:20;102260.63;;;11.61;75.66
50356;BME280;36264;51.296;-0.602;2023-02-01T07:33:49;102261.38;;;11.71;75.65
50356;BME280;36264;51.296;-0.602;2023-02-01T07:36:18;102255.19;;;11.79;75.57
50356;BME280;36264;51.296;-0.602;2023-02-01T07:38:44;102257.06;;;11.70;75.61
50356;BME280;36264;51.296;-0.602;2023-02-01T07:41:11;102264.88;;;11.70;75.42
50356;BME280;36264;51.296;-0.602;2023-02-01T07:43:37;102269.19;;;11.71;75.61
50356;BME280;36264;51.296;-0.602;2023-02-01T07:46:03;102269.22;;;11.69;75.99
50356;BME280;36264;51.296;-0.602;2023-02-01T07:48:30;102272.63;;;11.74;75.94
50356;BME280;36264;51.296;-0.602;2023-02-01T07:51:10;102277.72;;;11.85;75.73
50356;BME280;36264;51.296;-0.602;2023-02-01T07:53:36;102276.03;;;11.79;75.64
50356;BME280;36264;51.296;-0.602;2023-02-01T07:56:02;102283.84;;;11.79;75.83
50356;BME280;36264;51.296;-0.602;2023-02-01T07:58:28;102288.28;;;11.71;75.64
50356;BME280;36264;51.296;-0.602;2023-02-01T08:00:54;102283.84;;;11.78;75.79
50356;BME280;36264;51.296;-0.602;2023-02-01T08:03:39;102284.72;;;11.78;76.08
50356;BME280;36264;51.296;-0.602;2023-02-01T08:06:04;102286.44;;;11.78;76.07
50356;BME280;36264;51.296;-0.602;2023-02-01T08:08:31;102283.88;;;11.76;76.14
50356;BME280;36264;51.296;-0.602;2023-02-01T08:10:58;102290.75;;;11.84;76.45
50356;BME280;36264;51.296;-0.602;2023-02-01T08:13:23;102296.00;;;11.77;76.16
50356;BME280;36264;51.296;-0.602;2023-02-01T08:15:49;102295.16;;;11.77;76.16
50356;BME280;36264;51.296;-0.602;2023-02-01T08:18:14;102290.78;;;11.81;76.27
50356;BME280;36264;51.296;-0.602;2023-02-01T08:20:41;102298.53;;;11.85;76.17
50356;BME280;36264;51.296;-0.602;2023-02-01T08:23:08;102301.97;;;11.87;76.18
50356;BME280;36264;51.296;-0.602;2023-02-01T08:25:34;102288.94;;;11.89;75.89
50356;BME280;36264;51.296;-0.602;2023-02-01T08:28:01;102294.97;;;11.91;76.19
50356;BME280;36264;51.296;-0.602;2023-02-01T08:30:27;102280.31;;;11.84;75.98
50356;BME280;36264;51.296;-0.602;2023-02-01T08:32:52;102271.56;;;11.89;76.01
50356;BME280;36264;51.296;-0.602;2023-02-01T08:35:18;102277.66;;;11.90;75.97
50356;BME280;36264;51.296;-0.602;2023-02-01T08:37:43;102269.84;;;11.88;75.94
50356;BME280;36264;51.296;-0.602;2023-02-01T08:40:09;102274.16;;;11.94;76.09
50356;BME280;36264;51.296;-0.602;2023-02-01T08:42:34;102272.44;;;11.90;76.00
50356;BME280;36264;51.296;-0.602;2023-02-01T08:45:20;102272.38;;;11.99;76.33
50356;BME280;36264;51.296;-0.602;2023-02-01T08:47:47;102273.25;;;11.96;76.18
50356;BME280;36264;51.296;-0.602;2023-02-01T08:50:13;102271.44;;;12.03;76.02
50356;BME280;36264;51.296;-0.602;2023-02-01T08:52:40;102269.66;;;12.07;76.17
50356;BME280;36264;51.296;-0.602;2023-02-01T08:55:06;102279.22;;;12.06;76.42
50356;BME280;36264;51.296;-0.602;2023-02-01T08:57:33;102286.16;;;12.07;76.45
50356;BME280;36264;51.296;-0.602;2023-02-01T08:59:58;102296.56;;;12.07;76.56
50356;BME280;36264;51.296;-0.602;2023-02-01T09:02:25;102302.59;;;12.11;76.22
50356;BME280;36264;51.296;-0.602;2023-02-01T09:04:50;102299.09;;;12.13;76.81
50356;BME280;36264;51.296;-0.602;2023-02-01T09:07:15;102312.13;;;12.12;76.43
50356;BME280;36264;51.296;-0.602;2023-02-01T09:09:43;102314.72;;;12.15;76.54
50356;BME280;36264;51.296;-0.602;2023-02-01T09:12:09;102302.56;;;12.14;76.81
50356;BME280;36264;51.296;-0.602;2023-02-01T09:14:34;102303.38;;;12.16;76.43
50356;BME280;36264;51.296;-0.602;2023-02-01T09:16:59;102299.91;;;12.17;76.46
50356;BME280;36264;51.296;-0.602;2023-02-01T09:19:25;102305.13;;;12.17;76.65
50356;BME280;36264;51.296;-0.602;2023-02-01T09:21:50;102311.19;;;12.16;76.27
50356;BME280;36264;51.296;-0.602;2023-02-01T09:24:16;102304.16;;;12.23;76.83
50356;BME280;36264;51.296;-0.602;2023-02-01T09:26:41;102310.28;;;12.22;76.64
50356;BME280;36264;51.296;-0.602;2023-02-01T09:29:07;102312.81;;;12.28;76.47
50356;BME280;36264;51.296;-0.602;2023-02-01T09:31:35;102311.88;;;12.32;76.61
50356;BME280;36264;51.296;-0.602;2023-02-01T09:34:01;102311.91;;;12.27;76.17
50356;BME280;36264;51.296;-0.602;2023-02-01T09:36:26;102309.28;;;12.29;76.21
50356;BME280;36264;51.296;-0.602;2023-02-01T09:38:52;102316.25;;;12.30;76.47
50356;BME280;36264;51.296;-0.602;2023-02-01T09:46:44;102313.41;;;12.48;75.69
50356;BME280;36264;51.296;-0.602;2023-02-01T09:49:28;102328.13;;;12.49;75.74
50356;BME280;36264;51.296;-0.602;2023-02-01T09:51:55;102310.78;;;12.50;75.62
50356;BME280;36264;51.296;-0.602;2023-02-01T09:54:25;102314.88;;;12.65;75.77
50356;BME280;36264;51.296;-0.602;2023-02-01T09:56:58;102306.13;;;12.72;75.63
50356;BME280;36264;51.296;-0.602;2023-02-01T09:59:41;102307.78;;;12.75;74.84
50356;BME280;36264;51.296;-0.602;2023-02-01T10:02:22;102301.78;;;12.71;73.89
50356;BME280;36264;51.296;-0.602;2023-02-01T10:04:48;102299.19;;;12.69;75.27
50356;BME280;36264;51.296;-0.602;2023-02-01T10:10:01;102291.09;;;12.88;74.81
50356;BME280;36264;51.296;-0.602;2023-02-01T10:26:26;102291.53;;;13.13;73.29
50356;BME280;36264;51.296;-0.602;2023-02-01T10:28:58;102303.75;;;13.10;72.96
50356;BME280;36264;51.296;-0.602;2023-02-01T10:31:28;102282.88;;;13.11;73.45
50356;BME280;36264;51.296;-0.602;2023-02-01T10:33:57;102290.47;;;13.25;72.94
50356;BME280;36264;51.296;-0.602;2023-02-01T10:36:36;102283.31;;;13.36;72.16
50356;BME280;36264;51.296;-0.602;2023-02-01T10:39:04;102283.19;;;13.44;70.75
50356;BME280;36264;51.296;-0.602;2023-02-01T10:41:35;102282.19;;;13.53;72.68
50356;BME280;36264;51.296;-0.602;2023-02-01T10:44:04;102291.22;;;13.33;71.57
50356;BME280;36264;51.296;-0.602;2023-02-01T10:46:31;102288.31;;;13.50;72.57
50356;BME280;36264;51.296;-0.602;2023-02-01T10:48:58;102297.16;;;13.41;72.38
50356;BME280;36264;51.296;-0.602;2023-02-01T10:51:54;102287.31;;;13.56;72.83
50356;BME280;36264;51.296;-0.602;2023-02-01T10:54:37;102291.59;;;13.60;72.39
50356;BME280;36264;51.296;-0.602;2023-02-01T10:57:07;102282.81;;;13.64;72.24
50356;BME280;36264;51.296;-0.602;2023-02-01T10:59:33;102291.94;;;13.41;72.54
50356;BME280;36264;51.296;-0.602;2023-02-01T11:02:13;102285.34;;;13.69;72.11
50356;BME280;36264;51.296;-0.602;2023-02-01T11:04:40;102294.19;;;13.62;71.98
50356;BME280;36264;51.296;-0.602;2023-02-01T11:07:07;102282.81;;;13.66;72.25
50356;BME280;36264;51.296;-0.602;2023-02-01T11:09:38;102284.56;;;13.64;72.24
50356;BME280;36264;51.296;-0.602;2023-02-01T11:12:05;102292.19;;;13.74;72.53
50356;BME280;36264;51.296;-0.602;2023-02-01T11:14:39;102297.22;;;13.85;72.45
50356;BME280;36264;51.296;-0.602;2023-02-01T11:19:44;102291.19;;;13.82;72.17
50356;BME280;36264;51.296;-0.602;2023-02-01T11:22:11;102290.22;;;13.86;72.69
50356;BME280;36264;51.296;-0.602;2023-02-01T11:24:37;102285.91;;;13.85;72.87
50356;BME280;36264;51.296;-0.602;2023-02-01T11:27:14;102287.19;;;14.07;72.91
50356;BME280;36264;51.296;-0.602;2023-02-01T11:29:43;102280.03;;;14.16;72.84
50356;BME280;36264;51.296;-0.602;2023-02-01T11:32:12;102282.69;;;14.12;72.27
50356;BME280;36264;51.296;-0.602;2023-02-01T11:37:24;102279.75;;;14.29;71.25
50356;BME280;36264;51.296;-0.602;2023-02-01T11:40:02;102276.91;;;14.39;72.07
50356;BME280;36264;51.296;-0.602;2023-02-01T11:42:32;102277.53;;;14.09;70.62
50356;BME280;36264;51.296;-0.602;2023-02-01T11:45:20;102270.19;;;14.27;70.86
50356;BME280;36264;51.296;-0.602;2023-02-01T11:47:52;102277.28;;;14.22;70.95
50356;BME280;36264;51.296;-0.602;2023-02-01T11:50:25;102267.34;;;14.38;72.02
50356;BME280;36264;51.296;-0.602;2023-02-01T12:03:58;102264.91;;;14.69;70.91
50356;BME280;36264;51.296;-0.602;2023-02-01T12:06:54;102265.66;;;14.74;69.57
50356;BME280;36264;51.296;-0.602;2023-02-01T12:12:25;102270.72;;;14.82;68.82
50356;BME280;36264;51.296;-0.602;2023-02-01T12:23:01;102278.50;;;15.19;67.16
50356;BME280;36264;51.296;-0.602;2023-02-01T12:36:27;102248.59;;;15.28;69.04
50356;BME280;36264;51.296;-0.602;2023-02-01T12:39:11;102246.25;;;15.50;68.26
50356;BME280;36264;51.296;-0.602;2023-02-01T12:41:47;102243.50;;;15.55;66.72
50356;BME280;36264;51.296;-0.602;2023-02-01T12:46:53;102234.63;;;15.61;68.61
50356;BME280;36264;51.296;-0.602;2023-02-01T12:49:23;102229.22;;;15.65;67.76
50356;BME280;36264;51.296;-0.602;2023-02-01T12:51:58;102224.50;;;15.48;67.47
50356;BME280;36264;51.296;-0.602;2023-02-01T12:57:10;102233.75;;;15.60;67.64
50356;BME280;36264;51.296;-0.602;2023-02-01T12:59:48;102226.69;;;15.62;65.16
50356;BME280;36264;51.296;-0.602;2023-02-01T13:02:25;102220.38;;;15.69;66.42
50356;BME280;36264;51.296;-0.602;2023-02-01T13:05:01;102218.91;;;15.61;66.43
50356;BME280;36264;51.296;-0.602;2023-02-01T13:07:38;102212.66;;;15.65;64.80
50356;BME280;36264;51.296;-0.602;2023-02-01T13:10:18;102211.81;;;15.64;66.46
50356;BME280;36264;51.296;-0.602;2023-02-01T13:12:54;102214.34;;;15.67;67.08
50356;BME280;36264;51.296;-0.602;2023-02-01T13:15:26;102214.94;;;15.46;64.89
50356;BME280;36264;51.296;-0.602;2023-02-01T13:17:55;102208.53;;;15.57;66.88
50356;BME280;36264;51.296;-0.602;2023-02-01T13:20:36;102206.09;;;15.81;65.79
50356;BME280;36264;51.296;-0.602;2023-02-01T13:23:22;102209.31;;;15.91;64.50
50356;BME280;36264;51.296;-0.602;2023-02-01T13:25:50;102207.81;;;15.82;66.89
50356;BME280;36264;51.296;-0.602;2023-02-01T13:28:22;102206.34;;;15.72;65.22
50356;BME280;36264;51.296;-0.602;2023-02-01T13:33:56;102209.53;;;15.52;65.75
50356;BME280;36264;51.296;-0.602;2023-02-01T13:42:05;102212.56;;;15.68;63.77
50356;BME280;36264;51.296;-0.602;2023-02-01T13:44:44;102235.34;;;15.66;66.00
50356;BME280;36264;51.296;-0.602;2023-02-01T13:47:27;102220.75;;;15.57;64.53
50356;BME280;36264;51.296;-0.602;2023-02-01T13:49:55;102219.94;;;15.55;66.46
50356;BME280;36264;51.296;-0.602;2023-02-01T13:52:51;102235.50;;;15.60;64.08
50356;BME280;36264;51.296;-0.602;2023-02-01T13:57:48;102227.06;;;15.50;66.62
50356;BME280;36264;51.296;-0.602;2023-02-01T14:00:25;102228.63;;;15.55;65.05
50356;BME280;36264;51.296;-0.602;2023-02-01T14:10:57;102222.72;;;15.49;65.29
50356;BME280;36264;51.296;-0.602;2023-02-01T14:26:19;102217.06;;;15.33;65.18
50356;BME280;36264;51.296;-0.602;2023-02-01T14:28:51;102208.88;;;15.45;65.88
50356;BME280;36264;51.296;-0.602;2023-02-01T14:31:32;102217.34;;;15.53;65.64
50356;BME280;36264;51.296;-0.602;2023-02-01T14:34:02;102229.81;;;15.45;64.74
50356;BME280;36264;51.296;-0.602;2023-02-01T14:36:40;102220.41;;;15.38;63.81
50356;BME280;36264;51.296;-0.602;2023-02-01T14:39:19;102211.34;;;15.50;64.11
50356;BME280;36264;51.296;-0.602;2023-02-01T14:41:47;102212.28;;;15.47;65.80
50356;BME280;36264;51.296;-0.602;2023-02-01T14:44:22;102217.47;;;15.49;66.08
50356;BME280;36264;51.296;-0.602;2023-02-01T14:47:27;102204.31;;;15.52;64.66
50356;BME280;36264;51.296;-0.602;2023-02-01T14:52:51;102230.50;;;15.52;65.72
50356;BME280;36264;51.296;-0.602;2023-02-01T15:01:31;102216.75;;;15.44;65.41
50356;BME280;36264;51.296;-0.602;2023-02-01T15:04:17;102216.22;;;15.32;65.14
50356;BME280;36264;51.296;-0.602;2023-02-01T15:06:53;102213.41;;;15.38;66.50
50356;BME280;36264;51.296;-0.602;2023-02-01T15:12:23;102240.13;;;15.18;65.39
50356;BME280;36264;51.296;-0.602;2023-02-01T15:15:14;102227.00;;;15.20;64.92